createdAt,value
2023-06-29T00:01:55.617Z,9.13
2023-06-29T00:04:26.802Z,9.65
2023-06-29T00:06:55.141Z,9.23
2023-06-29T00:09:23.097Z,9.43
2023-06-29T00:11:49.819Z,9.60
2023-06-29T00:14:16.527Z,9.93
2023-06-29T00:16:43.192Z,10.82
2023-06-29T00:19:09.735Z,10.50
2023-06-29T00:21:36.221Z,10.63
2023-06-29T00:24:03.766Z,10.00
2023-06-29T00:26:30.408Z,10.15
2023-06-29T00:28:57.698Z,9.00
2023-06-29T00:31:25.616Z,9.88
2023-06-29T00:33:52.347Z,9.48
2023-06-29T00:36:19.503Z,9.85
2023-06-29T00:38:46.050Z,10.73
2023-06-29T00:41:12.580Z,10.30
2023-06-29T00:43:39.133Z,10.35
2023-06-29T00:46:09.172Z,10.63
2023-06-29T00:48:39.076Z,10.27
2023-06-29T00:51:06.217Z,9.68
2023-06-29T00:53:32.930Z,9.57
2023-06-29T00:56:03.683Z,10.15
2023-06-29T00:58:30.767Z,10.70
2023-06-29T01:00:58.850Z,10.38
2023-06-29T01:03:25.631Z,10.95
2023-06-29T01:05:57.492Z,10.82
2023-06-29T01:08:30.342Z,9.88
2023-06-29T01:10:59.563Z,10.45
2023-06-29T01:13:28.385Z,10.32
2023-06-29T01:15:55.180Z,11.43
2023-06-29T01:18:25.204Z,11.07
2023-06-29T01:20:52.972Z,11.25
2023-06-29T01:23:30.191Z,10.80
2023-06-29T01:25:57.578Z,10.52
2023-06-29T01:28:24.072Z,10.55
2023-06-29T01:30:50.709Z,10.30
2023-06-29T01:33:19.993Z,10.98
2023-06-29T01:35:47.228Z,10.80
2023-06-29T01:38:23.485Z,11.68
2023-06-29T01:40:50.661Z,10.60
2023-06-29T01:43:19.159Z,11.00
2023-06-29T01:45:47.648Z,11.27
2023-06-29T01:48:15.095Z,11.40
2023-06-29T01:50:41.784Z,11.25
2023-06-29T01:53:08.407Z,11.55
2023-06-29T01:55:37.740Z,11.15
2023-06-29T01:58:04.453Z,11.63
2023-06-29T02:00:30.965Z,11.93
2023-06-29T02:02:57.669Z,10.85
2023-06-29T02:05:24.340Z,10.80
2023-06-29T02:07:51.177Z,11.02
2023-06-29T02:10:17.695Z,11.52
2023-06-29T02:12:44.262Z,11.52
2023-06-29T02:15:11.191Z,11.88
2023-06-29T02:17:37.972Z,12.18
2023-06-29T02:20:04.947Z,11.27
2023-06-29T02:22:31.439Z,12.40
2023-06-29T02:24:57.915Z,11.02
2023-06-29T02:27:24.556Z,11.90
2023-06-29T02:29:51.002Z,12.18
2023-06-29T02:32:17.454Z,12.05
2023-06-29T02:34:43.878Z,12.23
2023-06-29T02:37:10.470Z,12.30
2023-06-29T02:39:36.939Z,13.00
2023-06-29T02:42:03.521Z,12.93
2023-06-29T02:44:29.919Z,12.43
2023-06-29T02:46:56.557Z,12.43
2023-06-29T02:49:22.980Z,12.20
2023-06-29T02:51:49.461Z,12.63
2023-06-29T02:54:15.985Z,12.07
2023-06-29T02:56:42.585Z,12.57
2023-06-29T02:59:09.013Z,13.68
2023-06-29T03:01:35.583Z,12.07
2023-06-29T03:04:02.194Z,13.07
2023-06-29T03:06:28.752Z,12.50
2023-06-29T03:08:55.237Z,13.27
2023-06-29T03:11:21.679Z,13.02
2023-06-29T03:13:51.093Z,12.48
2023-06-29T03:16:18.132Z,13.20
2023-06-29T03:18:44.642Z,12.82
2023-06-29T03:21:17.946Z,13.27
2023-06-29T03:23:45.319Z,12.70
2023-06-29T03:26:11.889Z,11.40
2023-06-29T03:28:38.527Z,12.40
2023-06-29T03:31:05.002Z,13.30
2023-06-29T03:33:31.563Z,13.05
2023-06-29T03:35:58.292Z,13.10
2023-06-29T03:38:24.777Z,13.05
2023-06-29T03:40:51.259Z,13.25
2023-06-29T03:43:17.727Z,14.60
2023-06-29T03:45:44.581Z,13.80
2023-06-29T03:48:11.428Z,13.50
2023-06-29T03:50:37.989Z,13.52
2023-06-29T03:53:04.557Z,13.20
2023-06-29T03:55:31.042Z,13.57
2023-06-29T03:57:58.925Z,13.15
2023-06-29T04:00:25.477Z,12.05
2023-06-29T04:02:52.067Z,13.80
2023-06-29T04:05:18.726Z,12.70
2023-06-29T04:07:45.306Z,13.57
2023-06-29T04:10:11.814Z,12.23
2023-06-29T04:12:39.727Z,12.50
2023-06-29T04:15:06.905Z,12.95
2023-06-29T04:17:33.532Z,12.75
2023-06-29T04:20:00.055Z,13.68
2023-06-29T04:22:26.534Z,13.98
2023-06-29T04:24:53.403Z,13.07
2023-06-29T04:27:20.034Z,13.50
2023-06-29T04:29:46.633Z,13.57
2023-06-29T04:32:13.254Z,13.95
2023-06-29T04:34:39.748Z,14.02
2023-06-29T04:37:07.572Z,13.98
2023-06-29T04:39:34.165Z,14.38
2023-06-29T04:42:04.017Z,14.18
2023-06-29T04:44:33.544Z,14.85
2023-06-29T04:47:04.454Z,14.48
2023-06-29T04:49:37.750Z,14.57
2023-06-29T04:52:05.490Z,14.48
2023-06-29T04:54:32.074Z,14.63
2023-06-29T04:57:00.439Z,14.75
2023-06-29T04:59:29.772Z,14.93
2023-06-29T05:01:56.354Z,12.88
2023-06-29T05:04:22.985Z,14.18
2023-06-29T05:06:49.660Z,15.77
2023-06-29T05:09:16.973Z,14.45
2023-06-29T05:11:44.064Z,14.20
2023-06-29T05:14:10.936Z,15.35
2023-06-29T05:16:37.861Z,14.35
2023-06-29T05:19:05.246Z,14.63
2023-06-29T05:21:31.980Z,15.00
2023-06-29T05:23:58.500Z,16.48
2023-06-29T05:26:25.101Z,13.98
2023-06-29T05:29:04.332Z,15.10
2023-06-29T05:31:32.648Z,16.23
2023-06-29T05:33:59.174Z,15.05
2023-06-29T05:36:25.704Z,14.57
2023-06-29T05:38:52.210Z,13.50
2023-06-29T05:41:18.989Z,14.90
2023-06-29T05:43:45.429Z,14.90
2023-06-29T05:46:12.091Z,14.73
2023-06-29T05:48:38.598Z,14.15
2023-06-29T05:51:05.149Z,13.75
2023-06-29T05:53:32.709Z,15.65
2023-06-29T05:55:59.388Z,15.07
2023-06-29T05:58:25.914Z,13.80
2023-06-29T06:00:52.847Z,15.18
2023-06-29T06:03:21.053Z,14.75
2023-06-29T06:05:47.633Z,15.68
2023-06-29T06:08:15.843Z,13.30
2023-06-29T06:10:43.012Z,14.85
2023-06-29T06:13:10.406Z,15.45
2023-06-29T06:15:36.858Z,14.73
2023-06-29T06:18:03.633Z,15.15
2023-06-29T06:20:30.266Z,15.73
2023-06-29T06:22:56.805Z,15.27
2023-06-29T06:25:23.289Z,14.27
2023-06-29T06:27:50.123Z,15.48
2023-06-29T06:30:16.738Z,15.85
2023-06-29T06:32:43.328Z,14.93
2023-06-29T06:35:10.297Z,14.77
2023-06-29T06:37:37.895Z,13.85
2023-06-29T06:40:14.163Z,14.88
2023-06-29T06:42:40.743Z,14.45
2023-06-29T06:45:08.033Z,15.15
2023-06-29T06:47:36.744Z,14.15
2023-06-29T06:50:05.023Z,15.25
2023-06-29T06:52:31.754Z,14.32
2023-06-29T06:54:58.436Z,14.40
2023-06-29T06:57:25.611Z,14.02
2023-06-29T06:59:52.363Z,13.82
2023-06-29T07:02:19.138Z,14.43
2023-06-29T07:04:45.851Z,14.23
2023-06-29T07:07:12.559Z,13.93
2023-06-29T07:09:39.915Z,14.55
2023-06-29T07:12:07.565Z,15.35
2023-06-29T07:14:34.109Z,14.07
2023-06-29T07:17:00.769Z,14.57
2023-06-29T07:24:26.694Z,13.88
2023-06-29T07:26:53.340Z,14.18
2023-06-29T07:29:19.866Z,13.95
2023-06-29T07:31:47.073Z,14.00
2023-06-29T07:34:13.610Z,14.50
2023-06-29T07:36:40.393Z,14.27
2023-06-29T07:39:06.909Z,14.13
2023-06-29T07:41:33.465Z,14.70
2023-06-29T07:44:01.134Z,13.88
2023-06-29T07:46:27.865Z,13.60
2023-06-29T07:48:55.765Z,14.43
2023-06-29T07:51:22.969Z,14.50
2023-06-29T07:53:51.270Z,15.32
2023-06-29T07:56:18.374Z,14.52
2023-06-29T07:58:45.606Z,14.50
2023-06-29T08:01:12.235Z,13.95
2023-06-29T08:03:56.027Z,15.07
2023-06-29T08:08:54.813Z,15.10
2023-06-29T08:11:22.351Z,16.63
2023-06-29T08:13:48.852Z,15.45
2023-06-29T08:16:15.811Z,15.00
2023-06-29T08:18:42.559Z,16.00
2023-06-29T08:21:11.862Z,15.05
2023-06-29T08:23:38.580Z,15.93
2023-06-29T08:26:05.680Z,15.75
2023-06-29T08:28:32.404Z,15.18
2023-06-29T08:30:58.893Z,16.05
2023-06-29T08:33:25.569Z,15.80
2023-06-29T08:35:52.716Z,16.33
2023-06-29T08:38:19.354Z,16.73
2023-06-29T08:40:50.307Z,16.88
2023-06-29T08:43:18.775Z,16.52
2023-06-29T08:45:46.356Z,17.65
2023-06-29T08:48:13.867Z,15.52
2023-06-29T08:50:46.791Z,17.40
2023-06-29T08:53:14.865Z,15.90
2023-06-29T08:55:43.100Z,16.98
2023-06-29T08:58:09.877Z,15.80
2023-06-29T09:00:38.608Z,17.75
2023-06-29T09:03:05.245Z,15.90
2023-06-29T09:05:33.659Z,16.38
2023-06-29T09:08:00.325Z,16.55
2023-06-29T09:10:26.954Z,16.83
2023-06-29T09:12:54.211Z,16.15
2023-06-29T09:15:21.524Z,16.38
2023-06-29T09:17:55.639Z,14.90
2023-06-29T09:20:22.982Z,16.55
2023-06-29T09:22:53.378Z,14.98
2023-06-29T09:25:33.213Z,15.02
2023-06-29T09:28:09.036Z,15.38
2023-06-29T09:30:38.576Z,17.40
2023-06-29T09:33:07.684Z,16.38
2023-06-29T09:35:35.363Z,17.02
2023-06-29T09:38:04.788Z,16.10
2023-06-29T09:40:31.437Z,16.73
2023-06-29T09:43:02.567Z,14.95
2023-06-29T09:45:31.512Z,14.80
2023-06-29T09:52:56.422Z,15.68
2023-06-29T09:55:30.768Z,16.67
2023-06-29T09:57:58.510Z,14.63
2023-06-29T10:00:25.093Z,14.90
2023-06-29T10:02:51.755Z,14.00
2023-06-29T10:05:18.246Z,14.45
2023-06-29T10:07:45.054Z,14.85
2023-06-29T10:10:16.122Z,13.52
2023-06-29T10:12:42.625Z,14.10
2023-06-29T10:15:10.737Z,13.68
2023-06-29T10:18:10.309Z,13.73
2023-06-29T10:20:39.225Z,15.07
2023-06-29T10:23:08.145Z,13.65
2023-06-29T10:25:38.127Z,14.77
2023-06-29T10:28:05.881Z,13.82
2023-06-29T10:30:46.993Z,14.35
2023-06-29T10:33:14.123Z,14.10
2023-06-29T10:35:41.746Z,14.38
2023-06-29T10:38:13.444Z,15.13
2023-06-29T10:40:48.233Z,14.45
2023-06-29T10:43:14.868Z,13.02
2023-06-29T10:45:41.845Z,13.27
2023-06-29T10:48:10.977Z,13.00
2023-06-29T10:50:40.796Z,14.73
2023-06-29T10:53:10.451Z,13.13
2023-06-29T10:55:53.367Z,14.48
2023-06-29T10:58:37.660Z,12.80
2023-06-29T11:01:04.152Z,14.00
2023-06-29T11:03:30.954Z,12.55
2023-06-29T11:05:59.506Z,14.80
2023-06-29T11:08:26.087Z,13.13
2023-06-29T11:10:52.992Z,12.85
2023-06-29T11:13:20.797Z,14.13
2023-06-29T11:15:56.231Z,13.63
2023-06-29T11:18:23.483Z,13.15
2023-06-29T11:20:49.937Z,13.00
2023-06-29T11:23:19.278Z,13.35
2023-06-29T11:25:45.786Z,14.38
2023-06-29T11:28:15.791Z,13.07
2023-06-29T11:30:42.966Z,14.30
2023-06-29T11:33:24.361Z,14.52
2023-06-29T11:35:58.588Z,14.25
2023-06-29T11:38:25.142Z,13.02
2023-06-29T11:41:06.084Z,14.55
2023-06-29T11:43:33.296Z,14.55
2023-06-29T11:46:00.257Z,14.57
2023-06-29T11:48:27.711Z,14.82
2023-06-29T11:50:58.257Z,15.40
2023-06-29T11:53:25.043Z,13.25
2023-06-29T11:55:52.398Z,13.77
2023-06-29T11:58:18.978Z,13.30
2023-06-29T12:00:45.509Z,14.43
2023-06-29T12:03:12.324Z,14.77
2023-06-29T12:05:43.488Z,14.15
2023-06-29T12:08:11.271Z,15.05
2023-06-29T12:10:40.049Z,14.85
2023-06-29T12:13:10.651Z,14.10
2023-06-29T12:15:37.197Z,13.45
2023-06-29T12:18:14.234Z,13.52
2023-06-29T12:20:47.359Z,13.10
2023-06-29T12:23:15.334Z,13.32
2023-06-29T12:25:47.393Z,13.40
2023-06-29T12:28:14.967Z,13.63
2023-06-29T12:30:41.589Z,14.40
2023-06-29T12:33:09.474Z,13.30
2023-06-29T12:35:36.112Z,13.63
2023-06-29T12:38:03.306Z,12.75
2023-06-29T12:40:32.012Z,13.10
2023-06-29T12:43:01.220Z,12.75
2023-06-29T12:45:28.422Z,13.05
2023-06-29T12:47:55.123Z,11.45
2023-06-29T12:50:21.604Z,13.15
2023-06-29T12:52:49.288Z,12.00
2023-06-29T12:55:16.381Z,12.00
2023-06-29T12:57:44.630Z,12.02
2023-06-29T13:00:11.786Z,11.45
2023-06-29T13:02:38.440Z,11.18
2023-06-29T13:05:05.369Z,10.02
2023-06-29T13:07:32.147Z,9.93
2023-06-29T13:09:59.475Z,9.60
2023-06-29T13:12:27.728Z,10.10
2023-06-29T13:14:54.238Z,9.10
2023-06-29T13:17:21.124Z,9.68
2023-06-29T13:19:49.194Z,8.38
2023-06-29T13:22:19.402Z,9.68
2023-06-29T13:24:47.820Z,9.68
2023-06-29T13:27:14.753Z,9.00
2023-06-29T13:29:41.330Z,9.30
2023-06-29T13:32:08.598Z,8.77
2023-06-29T13:34:35.473Z,9.88
2023-06-29T13:37:02.438Z,10.35
2023-06-29T13:39:29.875Z,9.80
2023-06-29T13:41:56.497Z,10.15
2023-06-29T13:44:23.156Z,9.52
2023-06-29T13:46:49.756Z,9.32
2023-06-29T13:49:16.652Z,9.18
2023-06-29T13:51:43.485Z,8.75
2023-06-29T13:54:10.205Z,8.95
2023-06-29T13:56:38.816Z,9.18
2023-06-29T13:59:09.642Z,9.27
2023-06-29T14:01:41.457Z,9.93
2023-06-29T14:04:10.835Z,10.23
2023-06-29T14:06:40.527Z,9.98
2023-06-29T14:09:08.614Z,9.95
2023-06-29T14:11:35.154Z,10.05
2023-06-29T14:14:01.741Z,9.85
2023-06-29T14:16:30.155Z,10.65
2023-06-29T14:18:58.173Z,10.25
2023-06-29T14:21:24.943Z,9.90
2023-06-29T14:23:51.558Z,9.32
2023-06-29T14:26:18.244Z,9.95
2023-06-29T14:28:44.745Z,8.82
2023-06-29T14:31:11.405Z,8.75
2023-06-29T14:33:38.389Z,8.85
2023-06-29T14:36:06.374Z,9.55
2023-06-29T14:38:33.068Z,8.80
2023-06-29T14:40:59.954Z,9.73
2023-06-29T14:43:26.545Z,9.00
2023-06-29T14:45:54.270Z,9.77
2023-06-29T14:48:20.966Z,9.52
2023-06-29T14:50:49.376Z,9.30
2023-06-29T14:53:16.696Z,9.88
2023-06-29T14:55:44.586Z,9.95
2023-06-29T14:58:11.715Z,9.88
2023-06-29T15:00:38.338Z,9.70
2023-06-29T15:03:05.607Z,10.65
2023-06-29T15:05:32.285Z,11.00
2023-06-29T15:07:59.191Z,11.35
2023-06-29T15:10:25.727Z,10.95
2023-06-29T15:12:52.265Z,9.95
2023-06-29T15:15:18.961Z,10.77
2023-06-29T15:17:45.577Z,10.25
2023-06-29T15:20:12.484Z,10.13
2023-06-29T15:22:39.005Z,9.82
2023-06-29T15:25:06.195Z,8.45
2023-06-29T15:27:32.956Z,8.35
2023-06-29T15:30:02.625Z,7.28
2023-06-29T15:32:29.112Z,6.50
2023-06-29T15:34:55.655Z,5.65
2023-06-29T15:37:22.151Z,5.55
2023-06-29T15:39:48.693Z,6.32
2023-06-29T15:42:16.522Z,5.38
2023-06-29T15:44:43.330Z,4.95
2023-06-29T15:47:09.852Z,4.63
2023-06-29T15:49:36.935Z,3.70
2023-06-29T15:52:04.252Z,3.83
2023-06-29T15:54:30.787Z,3.15
2023-06-29T15:56:57.459Z,2.90
2023-06-29T15:59:23.989Z,2.50
2023-06-29T16:01:51.798Z,2.83
2023-06-29T16:04:19.482Z,2.88
2023-06-29T16:06:46.689Z,2.53
2023-06-29T16:09:13.315Z,2.60
2023-06-29T16:11:39.956Z,2.10
2023-06-29T16:14:06.838Z,1.85
2023-06-29T16:16:33.539Z,2.17
2023-06-29T16:19:00.037Z,1.70
2023-06-29T16:21:28.885Z,2.17
2023-06-29T16:23:55.464Z,1.48
2023-06-29T16:26:22.040Z,1.58
2023-06-29T16:28:48.501Z,1.23
2023-06-29T16:31:15.354Z,1.35
2023-06-29T16:33:41.993Z,1.15
2023-06-29T16:36:08.896Z,1.00
2023-06-29T16:38:35.368Z,1.15
2023-06-29T16:41:01.842Z,1.10
2023-06-29T16:43:28.236Z,1.23
2023-06-29T16:45:54.938Z,0.93
2023-06-29T16:48:21.730Z,0.90
2023-06-29T16:50:48.344Z,1.00
2023-06-29T16:53:14.910Z,0.93
2023-06-29T16:55:41.348Z,1.00
2023-06-29T16:58:07.895Z,0.88
2023-06-29T17:00:34.412Z,0.93
2023-06-29T17:03:01.535Z,0.73
2023-06-29T17:05:28.128Z,0.73
2023-06-29T17:07:57.010Z,0.80
2023-06-29T17:10:23.886Z,0.70
2023-06-29T17:12:50.420Z,0.70
2023-06-29T17:15:17.126Z,1.02
2023-06-29T17:17:43.972Z,0.80
2023-06-29T17:20:11.289Z,0.70
2023-06-29T17:22:37.710Z,0.70
2023-06-29T17:25:04.462Z,1.63
2023-06-29T17:27:31.263Z,0.80
2023-06-29T17:29:57.816Z,1.20
2023-06-29T17:32:24.411Z,0.77
2023-06-29T17:34:50.940Z,1.00
2023-06-29T17:37:18.277Z,0.70
2023-06-29T17:39:44.805Z,1.10
2023-06-29T17:42:22.663Z,0.82
2023-06-29T17:44:49.769Z,0.90
2023-06-29T17:47:16.864Z,0.88
2023-06-29T17:49:44.253Z,0.55
2023-06-29T17:52:11.012Z,0.88
2023-06-29T17:54:39.095Z,1.20
2023-06-29T17:57:07.365Z,1.35
2023-06-29T17:59:35.522Z,1.10
2023-06-29T18:02:02.183Z,0.85
2023-06-29T18:04:31.703Z,1.40
2023-06-29T18:07:00.731Z,1.63
2023-06-29T18:09:27.626Z,1.65
2023-06-29T18:11:55.853Z,1.67
2023-06-29T18:14:22.384Z,1.35
2023-06-29T18:16:49.023Z,1.70
2023-06-29T18:19:15.706Z,1.38
2023-06-29T18:21:43.608Z,2.03
2023-06-29T18:24:10.211Z,1.52
2023-06-29T18:26:37.126Z,1.63
2023-06-29T18:29:03.874Z,1.38
2023-06-29T18:31:30.470Z,2.00
2023-06-29T18:33:57.393Z,1.60
2023-06-29T18:36:24.178Z,1.95
2023-06-29T18:38:51.064Z,1.73
2023-06-29T18:41:46.959Z,2.08
2023-06-29T18:44:16.082Z,1.67
2023-06-29T18:47:09.871Z,1.75
2023-06-29T18:49:50.646Z,1.52
2023-06-29T18:52:19.931Z,1.60
2023-06-29T18:54:46.813Z,1.70
2023-06-29T18:57:13.460Z,1.25
2023-06-29T18:59:40.097Z,1.30
2023-06-29T19:02:06.940Z,1.45
2023-06-29T19:04:33.659Z,1.48
2023-06-29T19:07:00.547Z,1.42
2023-06-29T19:09:28.879Z,1.20
2023-06-29T19:11:57.176Z,1.35
2023-06-29T19:14:23.733Z,1.35
2023-06-29T19:16:50.362Z,1.45
2023-06-29T19:19:17.182Z,1.40
2023-06-29T19:21:48.940Z,1.42
2023-06-29T19:24:16.689Z,1.20
2023-06-29T19:26:43.804Z,1.50
2023-06-29T19:29:11.746Z,1.33
2023-06-29T19:31:38.974Z,1.48
2023-06-29T19:34:06.963Z,1.45
2023-06-29T19:36:34.033Z,1.13
2023-06-29T19:39:00.849Z,1.48
2023-06-29T19:41:27.383Z,1.58
2023-06-29T19:43:53.908Z,1.40
2023-06-29T19:46:20.670Z,1.40
2023-06-29T19:48:47.706Z,1.40
2023-06-29T19:51:14.248Z,1.30
2023-06-29T19:53:41.935Z,1.30
2023-06-29T19:56:08.585Z,1.00
2023-06-29T19:58:35.135Z,1.52
2023-06-29T20:01:01.603Z,1.25
2023-06-29T20:03:28.205Z,1.52
2023-06-29T20:05:55.761Z,1.45
2023-06-29T20:08:22.235Z,1.73
2023-06-29T20:10:49.708Z,1.40
2023-06-29T20:13:16.327Z,1.70
2023-06-29T20:15:42.868Z,1.60
2023-06-29T20:18:09.993Z,1.60
2023-06-29T20:20:36.653Z,1.90
2023-06-29T20:23:03.178Z,1.70
2023-06-29T20:25:29.635Z,2.13
2023-06-29T20:27:56.436Z,1.70
2023-06-29T20:30:23.309Z,1.75
2023-06-29T20:32:49.897Z,1.90
2023-06-29T20:35:16.481Z,2.13
2023-06-29T20:37:43.180Z,1.70
2023-06-29T20:40:10.117Z,1.92
2023-06-29T20:42:38.671Z,1.98
2023-06-29T20:45:06.583Z,1.90
2023-06-29T20:47:33.211Z,2.60
2023-06-29T20:49:59.953Z,2.08
2023-06-29T20:52:26.430Z,2.10
2023-06-29T20:54:52.932Z,1.95
2023-06-29T20:57:23.367Z,1.80
2023-06-29T20:59:50.203Z,2.00
2023-06-29T21:02:18.583Z,1.80
2023-06-29T21:04:45.557Z,1.77
2023-06-29T21:07:12.553Z,1.80
2023-06-29T21:09:39.508Z,1.70
2023-06-29T21:12:06.574Z,1.98
2023-06-29T21:14:33.363Z,1.70
2023-06-29T21:17:00.199Z,1.75
2023-06-29T21:19:26.896Z,1.50
2023-06-29T21:21:53.640Z,1.45
2023-06-29T21:24:20.274Z,1.70
2023-06-29T21:26:46.946Z,1.80
2023-06-29T21:29:33.320Z,1.80
2023-06-29T21:32:03.989Z,1.67
2023-06-29T21:34:31.328Z,1.88
2023-06-29T21:36:58.472Z,1.65
2023-06-29T21:39:24.964Z,2.25
2023-06-29T21:41:51.446Z,1.70
2023-06-29T21:44:18.055Z,1.75
2023-06-29T21:46:44.729Z,1.88
2023-06-29T21:49:11.446Z,1.83
2023-06-29T21:51:38.285Z,1.70
2023-06-29T21:54:05.581Z,1.20
2023-06-29T21:56:32.155Z,1.90
2023-06-29T21:58:58.665Z,1.90
2023-06-29T22:01:25.189Z,2.47
2023-06-29T22:06:21.283Z,1.50
2023-06-29T22:08:49.848Z,1.38
2023-06-29T22:11:16.452Z,1.50
2023-06-29T22:13:44.739Z,1.40
2023-06-29T22:16:11.427Z,1.30
2023-06-29T22:18:37.953Z,1.77
2023-06-29T22:21:05.453Z,1.92
2023-06-29T22:23:31.926Z,2.05
2023-06-29T22:25:58.527Z,1.35
2023-06-29T22:28:25.036Z,1.70
2023-06-29T22:30:51.610Z,1.88
2023-06-29T22:33:18.187Z,1.75
2023-06-29T22:35:46.148Z,1.75
2023-06-29T22:38:12.884Z,1.33
2023-06-29T22:40:39.350Z,1.50
2023-06-29T22:43:05.776Z,1.65
2023-06-29T22:45:32.330Z,1.77
2023-06-29T22:47:59.598Z,1.75
2023-06-29T22:50:26.270Z,1.95
2023-06-29T22:52:52.855Z,1.60
2023-06-29T22:55:19.451Z,1.70
2023-06-29T22:57:46.726Z,1.85
2023-06-29T23:00:13.601Z,1.70
2023-06-29T23:02:40.437Z,1.60
2023-06-29T23:05:07.660Z,1.77
2023-06-29T23:07:34.581Z,1.60
2023-06-29T23:10:01.171Z,1.77
2023-06-29T23:12:27.662Z,2.00
2023-06-29T23:14:55.912Z,1.75
2023-06-29T23:17:26.808Z,1.88
2023-06-29T23:19:53.463Z,2.05
2023-06-29T23:22:20.034Z,2.03
2023-06-29T23:24:46.669Z,1.52
2023-06-29T23:27:13.781Z,1.92
2023-06-29T23:29:40.280Z,1.80
2023-06-29T23:32:08.518Z,2.35
2023-06-29T23:34:35.372Z,1.95
2023-06-29T23:37:02.011Z,1.80
2023-06-29T23:39:28.863Z,2.72
2023-06-29T23:41:55.493Z,2.08
2023-06-29T23:44:21.952Z,2.20
2023-06-29T23:46:50.885Z,2.17
2023-06-29T23:49:21.561Z,2.15
2023-06-29T23:51:51.182Z,1.90
2023-06-29T23:54:17.936Z,2.20
2023-06-29T23:56:45.993Z,2.38
2023-06-29T23:59:12.519Z,1.95
